createdAt,value
2023-03-06T00:00:57.790Z,2.44
2023-03-06T00:03:28.106Z,3.22
2023-03-06T00:05:58.755Z,3.34
2023-03-06T00:08:27.352Z,3.22
2023-03-06T00:10:59.185Z,2.99
2023-03-06T00:13:30.241Z,2.76
2023-03-06T00:16:00.482Z,2.57
2023-03-06T00:18:32.893Z,2.42
2023-03-06T00:21:10.136Z,2.25
2023-03-06T00:23:37.316Z,2.13
2023-03-06T00:26:08.240Z,2.05
2023-03-06T00:28:38.739Z,1.95
2023-03-06T00:31:15.911Z,1.86
2023-03-06T00:33:45.502Z,2.47
2023-03-06T00:36:12.917Z,3.20
2023-03-06T00:38:41.424Z,3.35
2023-03-06T00:41:12.374Z,3.25
2023-03-06T00:43:40.611Z,3.03
2023-03-06T00:46:08.485Z,2.83
2023-03-06T00:48:35.780Z,2.62
2023-03-06T00:51:12.812Z,2.42
2023-03-06T00:53:41.885Z,2.26
2023-03-06T00:56:09.223Z,2.12
2023-03-06T00:58:38.548Z,2.03
2023-03-06T01:01:09.147Z,1.95
2023-03-06T01:03:37.837Z,1.86
2023-03-06T01:06:07.043Z,1.79
2023-03-06T01:08:37.134Z,2.35
2023-03-06T01:11:05.532Z,3.07
2023-03-06T01:13:32.808Z,3.27
2023-03-06T01:16:18.766Z,3.16
2023-03-06T01:18:48.447Z,2.92
2023-03-06T01:21:16.385Z,2.72
2023-03-06T01:23:47.480Z,2.52
2023-03-06T01:26:15.532Z,2.35
2023-03-06T01:28:47.478Z,2.20
2023-03-06T01:31:20.293Z,2.08
2023-03-06T01:33:47.636Z,1.99
2023-03-06T01:36:23.611Z,1.91
2023-03-06T01:38:51.896Z,1.84
2023-03-06T01:41:21.239Z,1.76
2023-03-06T01:43:54.499Z,2.33
2023-03-06T01:46:53.995Z,3.05
2023-03-06T01:49:26.742Z,3.21
2023-03-06T01:52:09.615Z,3.03
2023-03-06T01:54:44.967Z,2.81
2023-03-06T01:57:22.180Z,2.59
2023-03-06T01:59:53.193Z,2.41
2023-03-06T02:02:23.962Z,2.23
2023-03-06T02:04:53.794Z,2.10
2023-03-06T02:07:21.382Z,1.99
2023-03-06T02:09:54.658Z,1.86
2023-03-06T02:12:34.786Z,1.77
2023-03-06T02:15:02.190Z,1.68
2023-03-06T02:17:35.493Z,2.22
2023-03-06T02:20:17.390Z,2.94
2023-03-06T02:22:52.986Z,3.10
2023-03-06T02:25:23.357Z,2.99
2023-03-06T02:27:56.603Z,2.80
2023-03-06T02:30:25.968Z,2.63
2023-03-06T02:32:53.808Z,2.44
2023-03-06T02:35:30.571Z,2.25
2023-03-06T02:37:59.519Z,2.11
2023-03-06T02:40:31.246Z,1.99
2023-03-06T02:42:58.885Z,1.87
2023-03-06T02:45:37.174Z,1.80
2023-03-06T02:48:15.748Z,1.71
2023-03-06T02:50:46.765Z,1.62
2023-03-06T02:53:19.009Z,2.27
2023-03-06T02:55:49.237Z,3.00
2023-03-06T02:58:21.290Z,3.16
2023-03-06T03:00:54.642Z,3.07
2023-03-06T03:03:22.465Z,2.86
2023-03-06T03:05:52.183Z,2.66
2023-03-06T03:08:25.795Z,2.46
2023-03-06T03:10:56.588Z,2.29
2023-03-06T03:13:26.651Z,2.16
2023-03-06T03:16:05.510Z,2.04
2023-03-06T03:18:34.016Z,1.90
2023-03-06T03:21:05.915Z,1.77
2023-03-06T03:23:33.395Z,1.67
2023-03-06T03:26:26.925Z,1.59
2023-03-06T03:28:59.596Z,2.30
2023-03-06T03:31:27.891Z,2.90
2023-03-06T03:33:55.582Z,3.02
2023-03-06T03:36:27.603Z,2.91
2023-03-06T03:38:55.476Z,2.71
2023-03-06T03:41:23.964Z,2.51
2023-03-06T03:43:51.676Z,2.37
2023-03-06T03:46:21.532Z,2.21
2023-03-06T03:49:09.761Z,2.08
2023-03-06T03:51:43.805Z,1.95
2023-03-06T03:54:12.088Z,1.82
2023-03-06T03:56:45.129Z,1.76
2023-03-06T03:59:32.956Z,1.69
2023-03-06T04:02:14.994Z,1.63
2023-03-06T04:05:00.254Z,1.54
2023-03-06T04:08:33.220Z,1.49
2023-03-06T04:12:32.396Z,2.67
2023-03-06T04:15:48.668Z,3.12
2023-03-06T04:18:24.849Z,2.98
2023-03-06T04:24:03.429Z,2.08
2023-03-06T04:26:33.928Z,2.30
2023-03-06T04:29:01.741Z,2.18
2023-03-06T04:31:33.805Z,2.05
2023-03-06T04:34:09.899Z,1.97
2023-03-06T04:37:02.750Z,1.90
2023-03-06T04:39:59.720Z,1.82
2023-03-06T04:42:30.414Z,1.77
2023-03-06T04:45:14.225Z,2.59
2023-03-06T04:48:28.656Z,3.35
2023-03-06T04:51:07.112Z,3.43
2023-03-06T04:53:50.370Z,3.26
2023-03-06T04:56:34.707Z,2.98
2023-03-06T04:59:24.005Z,2.73
2023-03-06T05:01:59.238Z,2.55
2023-03-06T05:04:26.379Z,2.42
2023-03-06T05:06:54.000Z,2.29
2023-03-06T05:09:39.167Z,2.16
2023-03-06T05:12:07.840Z,2.02
2023-03-06T05:14:35.628Z,2.53
2023-03-06T05:17:06.648Z,3.26
2023-03-06T05:19:34.215Z,3.42
2023-03-06T05:22:11.582Z,3.29
2023-03-06T05:24:42.040Z,3.06
2023-03-06T05:27:09.354Z,2.83
2023-03-06T05:29:36.694Z,2.65
2023-03-06T05:32:16.251Z,2.45
2023-03-06T05:34:45.903Z,2.27
2023-03-06T05:37:13.161Z,2.15
2023-03-06T05:39:40.633Z,2.05
2023-03-06T05:42:08.500Z,2.57
2023-03-06T05:44:36.900Z,3.31
2023-03-06T05:47:10.100Z,3.50
2023-03-06T05:49:37.550Z,3.39
2023-03-06T05:52:07.242Z,3.21
2023-03-06T05:54:35.473Z,2.99
2023-03-06T05:57:04.407Z,2.79
2023-03-06T05:59:33.246Z,2.64
2023-03-06T06:02:06.857Z,2.50
2023-03-06T06:04:35.268Z,2.38
2023-03-06T06:07:03.533Z,2.25
2023-03-06T06:09:39.361Z,2.75
2023-03-06T06:12:06.832Z,3.45
2023-03-06T06:14:42.518Z,3.60
2023-03-06T06:17:12.505Z,3.52
2023-03-06T06:19:45.212Z,3.33
2023-03-06T06:22:12.471Z,3.11
2023-03-06T06:24:52.047Z,2.91
2023-03-06T06:27:22.381Z,2.76
2023-03-06T06:30:00.332Z,2.63
2023-03-06T06:32:27.567Z,2.52
2023-03-06T06:34:55.257Z,3.06
2023-03-06T06:37:22.513Z,3.83
2023-03-06T06:39:56.704Z,4.01
2023-03-06T06:42:40.307Z,3.82
2023-03-06T06:45:15.790Z,3.58
2023-03-06T06:47:46.438Z,3.36
2023-03-06T06:50:25.351Z,3.14
2023-03-06T06:52:58.953Z,2.91
2023-03-06T06:55:35.724Z,2.75
2023-03-06T06:58:05.616Z,2.65
2023-03-06T07:00:35.429Z,2.59
2023-03-06T07:03:10.504Z,3.16
2023-03-06T07:05:40.064Z,3.94
2023-03-06T07:08:16.535Z,4.14
2023-03-06T07:10:44.048Z,4.07
2023-03-06T07:13:28.034Z,3.84
2023-03-06T07:15:58.533Z,3.55
2023-03-06T07:18:25.767Z,3.35
2023-03-06T07:20:56.072Z,3.18
2023-03-06T07:23:23.530Z,3.05
2023-03-06T07:25:57.176Z,2.94
2023-03-06T07:28:28.186Z,3.53
2023-03-06T07:30:55.670Z,4.26
2023-03-06T07:33:23.171Z,4.42
2023-03-06T07:35:53.059Z,4.38
2023-03-06T07:38:23.029Z,4.22
2023-03-06T07:40:52.902Z,4.05
2023-03-06T07:43:20.804Z,3.85
2023-03-06T07:45:58.274Z,3.63
2023-03-06T07:48:26.388Z,3.52
2023-03-06T07:51:05.829Z,3.41
2023-03-06T07:53:37.440Z,3.35
2023-03-06T07:56:12.357Z,3.28
2023-03-06T07:58:48.440Z,3.88
2023-03-06T08:01:20.854Z,4.51
2023-03-06T08:03:50.773Z,4.47
2023-03-06T08:06:22.712Z,4.20
2023-03-06T08:08:55.329Z,3.78
2023-03-06T08:11:33.304Z,3.45
2023-03-06T08:14:04.980Z,3.17
2023-03-06T08:16:37.613Z,3.04
2023-03-06T08:19:05.142Z,2.83
2023-03-06T08:21:32.137Z,3.17
2023-03-06T08:24:06.276Z,3.74
2023-03-06T08:26:40.700Z,3.71
2023-03-06T08:29:22.436Z,3.58
2023-03-06T08:31:55.426Z,3.45
2023-03-06T08:34:26.255Z,3.32
2023-03-06T08:37:14.533Z,3.12
2023-03-06T08:39:41.874Z,3.00
2023-03-06T08:42:49.841Z,3.73
2023-03-06T08:45:17.108Z,4.32
2023-03-06T08:47:44.656Z,4.32
2023-03-06T08:50:22.265Z,4.18
2023-03-06T08:52:50.139Z,4.00
2023-03-06T08:55:24.814Z,3.81
2023-03-06T08:57:55.316Z,3.62
2023-03-06T09:00:27.088Z,3.41
2023-03-06T09:02:54.363Z,3.28
2023-03-06T09:05:30.794Z,3.81
2023-03-06T09:07:58.059Z,4.48
2023-03-06T09:10:28.715Z,4.61
2023-03-06T09:13:08.894Z,4.59
2023-03-06T09:15:56.711Z,4.49
2023-03-06T09:18:41.453Z,4.35
2023-03-06T09:21:09.073Z,4.26
2023-03-06T09:23:43.020Z,4.20
2023-03-06T09:26:13.620Z,4.22
2023-03-06T09:28:45.444Z,4.94
2023-03-06T09:31:18.556Z,5.76
2023-03-06T09:33:49.990Z,6.12
2023-03-06T09:36:21.314Z,6.25
2023-03-06T09:38:49.925Z,6.28
2023-03-06T09:41:28.253Z,6.24
2023-03-06T09:44:08.827Z,6.05
2023-03-06T09:46:58.035Z,5.94
2023-03-06T09:49:29.356Z,5.93
2023-03-06T09:52:18.363Z,5.96
2023-03-06T09:55:12.919Z,6.02
2023-03-06T09:58:07.501Z,6.11
2023-03-06T10:00:48.426Z,6.46
2023-03-06T10:03:32.484Z,6.92
2023-03-06T10:06:09.621Z,7.15
2023-03-06T10:08:54.772Z,7.26
2023-03-06T10:11:49.799Z,7.29
2023-03-06T10:14:41.086Z,7.32
2023-03-06T10:17:30.376Z,7.42
2023-03-06T10:20:00.593Z,7.62
2023-03-06T10:23:00.642Z,8.01
2023-03-06T10:26:02.070Z,8.64
2023-03-06T10:28:45.689Z,9.25
2023-03-06T10:31:31.460Z,9.50
2023-03-06T10:34:12.188Z,9.50
2023-03-06T10:36:59.155Z,9.40
2023-03-06T10:39:31.524Z,9.25
2023-03-06T10:41:58.807Z,9.01
2023-03-06T10:44:25.991Z,8.83
2023-03-06T10:46:56.462Z,9.05
2023-03-06T10:49:37.118Z,9.60
2023-03-06T10:52:05.730Z,10.07
2023-03-06T10:54:39.065Z,10.52
2023-03-06T10:57:31.098Z,10.78
2023-03-06T11:00:01.221Z,11.27
2023-03-06T11:02:33.985Z,11.33
2023-03-06T11:05:26.152Z,11.31
2023-03-06T11:08:21.108Z,11.63
2023-03-06T11:11:08.452Z,12.00
2023-03-06T11:13:42.346Z,12.19
2023-03-06T11:16:28.562Z,12.30
2023-03-06T11:19:10.429Z,12.45
2023-03-06T11:22:04.512Z,12.82
2023-03-06T11:24:42.604Z,13.21
2023-03-06T11:27:35.863Z,13.13
2023-03-06T11:30:48.959Z,12.66
2023-03-06T11:33:50.297Z,12.31
2023-03-06T11:36:50.037Z,12.03
2023-03-06T11:39:54.783Z,11.45
2023-03-06T11:42:29.795Z,10.71
2023-03-06T11:45:27.171Z,10.26
2023-03-06T11:48:15.560Z,9.60
2023-03-06T11:50:54.844Z,9.14
2023-03-06T11:53:40.739Z,8.94
2023-03-06T11:56:19.690Z,8.63
2023-03-06T11:58:52.231Z,8.37
2023-03-06T12:01:54.059Z,8.21
2023-03-06T12:04:45.021Z,8.04
2023-03-06T12:07:32.473Z,8.04
2023-03-06T12:10:23.419Z,8.19
2023-03-06T12:13:20.242Z,8.27
2023-03-06T12:16:23.155Z,8.25
2023-03-06T12:19:01.464Z,8.15
2023-03-06T12:21:32.212Z,8.03
2023-03-06T12:24:37.032Z,8.09
2023-03-06T12:27:31.724Z,8.05
2023-03-06T12:30:11.248Z,8.03
2023-03-06T12:33:03.963Z,8.13
2023-03-06T12:36:02.782Z,8.14
2023-03-06T12:38:39.926Z,8.15
2023-03-06T12:41:08.806Z,8.23
2023-03-06T12:43:45.784Z,8.25
2023-03-06T12:46:23.223Z,8.15
2023-03-06T12:49:31.484Z,8.06
2023-03-06T12:52:01.761Z,7.96
2023-03-06T12:54:30.327Z,7.84
2023-03-06T12:56:57.574Z,7.75
2023-03-06T12:59:44.700Z,7.65
2023-03-06T13:02:17.786Z,7.60
2023-03-06T13:04:56.477Z,7.58
2023-03-06T13:07:47.872Z,7.50
2023-03-06T13:10:38.650Z,7.44
2023-03-06T13:13:25.755Z,7.55
2023-03-06T13:16:18.582Z,7.57
2023-03-06T13:19:02.529Z,7.57
2023-03-06T13:21:41.824Z,7.58
2023-03-06T13:24:37.764Z,7.57
2023-03-06T13:27:13.574Z,7.83
2023-03-06T13:29:48.737Z,8.38
2023-03-06T13:32:19.700Z,8.93
2023-03-06T13:34:51.737Z,9.14
2023-03-06T13:37:20.433Z,9.21
2023-03-06T13:40:10.390Z,9.30
2023-03-06T13:43:00.059Z,9.23
2023-03-06T13:45:31.694Z,9.08
2023-03-06T13:48:21.403Z,8.86
2023-03-06T13:50:49.582Z,8.59
2023-03-06T13:53:41.246Z,8.56
2023-03-06T13:56:26.414Z,8.43
2023-03-06T13:59:14.230Z,8.59
2023-03-06T14:01:52.956Z,8.78
2023-03-06T14:04:57.835Z,9.02
2023-03-06T14:07:33.515Z,9.30
2023-03-06T14:10:20.701Z,9.52
2023-03-06T14:12:50.797Z,9.81
2023-03-06T14:15:25.364Z,9.96
2023-03-06T14:18:28.414Z,10.12
2023-03-06T14:20:59.614Z,10.02
2023-03-06T14:23:30.250Z,9.87
2023-03-06T14:26:08.922Z,9.74
2023-03-06T14:28:37.025Z,9.71
2023-03-06T14:31:19.473Z,9.60
2023-03-06T14:33:54.452Z,9.58
2023-03-06T14:36:22.969Z,9.54
2023-03-06T14:38:54.442Z,9.38
2023-03-06T14:41:27.086Z,9.08
2023-03-06T14:44:18.021Z,8.79
2023-03-06T14:46:52.045Z,8.56
2023-03-06T14:49:20.345Z,8.34
2023-03-06T14:52:14.992Z,8.12
2023-03-06T14:54:52.235Z,7.88
2023-03-06T14:57:22.436Z,7.76
2023-03-06T15:00:02.181Z,7.62
2023-03-06T15:02:38.937Z,7.46
2023-03-06T15:05:28.142Z,7.30
2023-03-06T15:07:58.133Z,7.18
2023-03-06T15:10:27.376Z,7.08
2023-03-06T15:13:23.532Z,6.95
2023-03-06T15:16:22.565Z,6.81
2023-03-06T15:19:01.329Z,6.73
2023-03-06T15:21:32.336Z,6.64
2023-03-06T15:23:59.731Z,6.56
2023-03-06T15:26:37.138Z,6.48
2023-03-06T15:29:13.855Z,6.41
2023-03-06T15:31:44.700Z,6.31
2023-03-06T15:34:32.476Z,6.22
2023-03-06T15:36:59.899Z,6.13
2023-03-06T15:39:34.924Z,6.06
2023-03-06T15:42:08.179Z,5.96
2023-03-06T15:44:38.507Z,5.87
2023-03-06T15:47:09.506Z,5.78
2023-03-06T15:49:39.538Z,5.70
2023-03-06T15:52:07.540Z,5.64
2023-03-06T15:54:35.618Z,5.59
2023-03-06T15:57:06.449Z,5.57
2023-03-06T15:59:41.472Z,5.53
2023-03-06T16:02:28.435Z,5.46
2023-03-06T16:04:55.336Z,5.39
2023-03-06T16:07:22.620Z,5.32
2023-03-06T16:09:50.093Z,5.25
2023-03-06T16:12:19.059Z,5.17
2023-03-06T16:14:50.186Z,5.10
2023-03-06T16:17:23.634Z,5.01
2023-03-06T16:19:51.556Z,4.92
2023-03-06T16:22:18.980Z,4.84
2023-03-06T16:24:46.105Z,4.76
2023-03-06T16:27:22.857Z,4.68
2023-03-06T16:29:54.596Z,4.59
2023-03-06T16:32:22.052Z,4.51
2023-03-06T16:34:49.119Z,4.44
2023-03-06T16:37:16.601Z,4.37
2023-03-06T16:39:51.218Z,4.31
2023-03-06T16:42:19.393Z,4.25
2023-03-06T16:44:46.918Z,4.19
2023-03-06T16:47:19.745Z,4.14
2023-03-06T16:49:52.073Z,4.08
2023-03-06T16:52:19.439Z,4.03
2023-03-06T16:54:56.237Z,3.99
2023-03-06T16:57:28.416Z,3.95
2023-03-06T17:00:03.984Z,3.92
2023-03-06T17:02:34.061Z,3.90
2023-03-06T17:05:07.258Z,3.87
2023-03-06T17:07:36.038Z,3.84
2023-03-06T17:10:05.104Z,3.80
2023-03-06T17:12:32.520Z,3.76
2023-03-06T17:14:59.508Z,3.73
2023-03-06T17:17:27.093Z,3.71
2023-03-06T17:19:56.642Z,3.70
2023-03-06T17:22:23.863Z,3.68
2023-03-06T17:24:52.230Z,3.71
2023-03-06T17:27:22.368Z,3.74
2023-03-06T17:29:57.938Z,3.79
2023-03-06T17:32:27.349Z,3.90
2023-03-06T17:34:57.542Z,3.97
2023-03-06T17:37:27.714Z,4.02
2023-03-06T17:39:55.187Z,4.07
2023-03-06T17:42:22.433Z,4.12
2023-03-06T17:44:51.075Z,4.16
2023-03-06T17:47:20.974Z,4.19
2023-03-06T17:49:48.110Z,4.23
2023-03-06T17:52:15.698Z,4.26
2023-03-06T17:54:43.109Z,4.27
2023-03-06T17:57:12.597Z,4.27
2023-03-06T17:59:40.235Z,4.27
2023-03-06T18:02:11.410Z,4.29
2023-03-06T18:04:42.449Z,4.30
2023-03-06T18:07:19.871Z,4.31
2023-03-06T18:09:47.328Z,4.33
2023-03-06T18:12:16.907Z,4.33
2023-03-06T18:14:44.541Z,4.34
2023-03-06T18:17:12.135Z,4.35
2023-03-06T18:19:41.297Z,4.36
2023-03-06T18:22:11.682Z,4.35
2023-03-06T18:24:38.947Z,4.35
2023-03-06T18:27:06.579Z,4.37
2023-03-06T18:29:34.644Z,4.38
2023-03-06T18:32:02.471Z,4.39
2023-03-06T18:34:37.692Z,4.42
2023-03-06T18:37:04.987Z,4.47
2023-03-06T18:39:32.750Z,4.51
2023-03-06T18:42:07.006Z,4.53
2023-03-06T18:44:41.920Z,4.55
2023-03-06T18:47:17.138Z,4.57
2023-03-06T18:49:45.988Z,4.60
2023-03-06T18:52:20.383Z,4.60
2023-03-06T18:54:51.637Z,4.65
2023-03-06T18:57:28.723Z,4.68
2023-03-06T19:00:37.321Z,4.62
2023-03-06T19:03:19.452Z,4.61
2023-03-06T19:05:50.444Z,4.58
2023-03-06T19:08:17.873Z,4.54
2023-03-06T19:10:50.607Z,4.57
2023-03-06T19:13:22.194Z,4.59
2023-03-06T19:15:49.365Z,4.59
2023-03-06T19:18:22.313Z,4.57
2023-03-06T19:20:49.617Z,4.55
2023-03-06T19:23:16.916Z,4.55
2023-03-06T19:25:43.889Z,4.53
2023-03-06T19:28:11.639Z,4.51
2023-03-06T19:30:41.920Z,4.51
2023-03-06T19:33:15.664Z,4.51
2023-03-06T19:35:42.974Z,4.50
2023-03-06T19:38:10.503Z,4.45
2023-03-06T19:40:38.118Z,4.41
2023-03-06T19:43:07.770Z,4.38
2023-03-06T19:45:36.724Z,4.19
2023-03-06T19:48:05.984Z,4.77
2023-03-06T19:50:37.069Z,5.51
2023-03-06T19:53:04.595Z,5.68
2023-03-06T19:55:31.842Z,5.60
2023-03-06T19:58:00.044Z,5.43
2023-03-06T20:00:27.630Z,5.25
2023-03-06T20:02:55.661Z,5.07
2023-03-06T20:05:23.195Z,4.90
2023-03-06T20:07:50.401Z,4.74
2023-03-06T20:10:18.130Z,4.60
2023-03-06T20:12:46.780Z,4.40
2023-03-06T20:15:18.990Z,4.23
2023-03-06T20:17:58.944Z,4.09
2023-03-06T20:20:28.057Z,3.97
2023-03-06T20:23:06.195Z,4.54
2023-03-06T20:25:36.502Z,5.29
2023-03-06T20:28:04.770Z,5.38
2023-03-06T20:30:43.244Z,5.22
2023-03-06T20:33:10.985Z,4.90
2023-03-06T20:35:42.747Z,4.65
2023-03-06T20:38:13.670Z,4.45
2023-03-06T20:40:46.587Z,4.27
2023-03-06T20:43:17.495Z,4.14
2023-03-06T20:45:58.601Z,4.02
2023-03-06T20:48:26.014Z,3.87
2023-03-06T20:51:31.551Z,4.34
2023-03-06T20:54:04.304Z,5.11
2023-03-06T20:56:40.107Z,5.18
2023-03-06T20:59:11.927Z,5.03
2023-03-06T21:01:43.108Z,4.83
2023-03-06T21:04:13.775Z,4.65
2023-03-06T21:06:42.578Z,4.47
2023-03-06T21:09:15.885Z,4.30
2023-03-06T21:11:44.882Z,4.11
2023-03-06T21:14:15.758Z,3.99
2023-03-06T21:16:50.665Z,3.90
2023-03-06T21:19:27.045Z,3.80
2023-03-06T21:22:00.033Z,3.76
2023-03-06T21:24:33.795Z,4.18
2023-03-06T21:27:04.342Z,5.22
2023-03-06T21:29:31.607Z,5.52
2023-03-06T21:32:03.534Z,5.42
2023-03-06T21:34:34.941Z,5.17
2023-03-06T21:37:05.053Z,4.81
2023-03-06T21:39:47.526Z,4.52
2023-03-06T21:42:17.974Z,4.32
2023-03-06T21:44:48.936Z,4.16
2023-03-06T21:47:21.751Z,4.03
2023-03-06T21:49:52.441Z,3.88
2023-03-06T21:52:26.556Z,4.45
2023-03-06T21:55:04.964Z,5.19
2023-03-06T21:57:41.123Z,5.29
2023-03-06T22:00:18.389Z,5.12
2023-03-06T22:02:48.855Z,4.85
2023-03-06T22:05:21.914Z,4.61
2023-03-06T22:07:54.950Z,4.36
2023-03-06T22:10:56.878Z,4.21
2023-03-06T22:14:45.028Z,3.99
2023-03-06T22:18:15.966Z,3.97
2023-03-06T22:21:52.697Z,5.35
2023-03-06T22:24:32.375Z,5.63
2023-03-06T22:27:07.813Z,5.46
2023-03-06T22:29:41.208Z,5.15
2023-03-06T22:32:17.109Z,4.85
2023-03-06T22:34:48.030Z,4.59
2023-03-06T22:37:40.540Z,4.34
2023-03-06T22:40:15.825Z,4.11
2023-03-06T22:42:59.724Z,4.64
2023-03-06T22:45:34.604Z,5.23
2023-03-06T22:48:11.383Z,5.30
2023-03-06T22:50:38.892Z,5.11
2023-03-06T22:53:06.570Z,4.86
2023-03-06T22:55:37.592Z,4.62
2023-03-06T22:58:08.025Z,4.25
2023-03-06T23:00:35.487Z,3.99
2023-03-06T23:03:05.883Z,4.49
2023-03-06T23:05:44.316Z,5.16
2023-03-06T23:08:12.276Z,5.24
2023-03-06T23:10:39.746Z,5.04
2023-03-06T23:13:30.349Z,4.68
2023-03-06T23:16:22.675Z,4.27
2023-03-06T23:19:09.121Z,3.87
2023-03-06T23:22:05.518Z,4.44
2023-03-06T23:24:53.853Z,4.91
2023-03-06T23:27:24.084Z,4.82
2023-03-06T23:29:59.040Z,4.46
2023-03-06T23:32:27.272Z,4.22
2023-03-06T23:34:54.845Z,4.01
2023-03-06T23:37:31.112Z,3.83
2023-03-06T23:40:07.823Z,4.35
2023-03-06T23:42:40.605Z,4.78
2023-03-06T23:45:09.041Z,4.58
2023-03-06T23:47:39.757Z,4.36
2023-03-06T23:50:07.982Z,4.10
2023-03-06T23:52:38.306Z,3.78
2023-03-06T23:55:09.191Z,3.51
2023-03-06T23:57:36.707Z,3.93
